createdAt,value
2018-03-18T00:01:37.912Z,90.00
2018-03-18T00:04:06.200Z,90.00
2018-03-18T00:06:34.522Z,90.00
2018-03-18T00:09:02.784Z,89.50
2018-03-18T00:11:31.056Z,89.20
2018-03-18T00:13:59.410Z,90.00
2018-03-18T00:16:27.725Z,89.40
2018-03-18T00:18:55.978Z,90.00
2018-03-18T00:21:24.257Z,90.00
2018-03-18T00:23:52.511Z,89.80
2018-03-18T00:26:20.925Z,89.60
2018-03-18T00:28:50.064Z,89.50
2018-03-18T00:31:19.102Z,89.00
2018-03-18T00:33:47.364Z,89.00
2018-03-18T00:36:15.646Z,89.40
2018-03-18T00:38:43.936Z,89.70
2018-03-18T00:41:12.263Z,89.50
2018-03-18T00:43:41.320Z,90.10
2018-03-18T00:46:09.653Z,90.00
2018-03-18T00:48:37.970Z,90.00
2018-03-18T00:51:06.209Z,89.70
2018-03-18T00:53:34.528Z,89.60
2018-03-18T00:56:02.774Z,89.90
2018-03-18T00:58:31.078Z,90.00
2018-03-18T01:00:59.371Z,89.40
2018-03-18T01:03:27.632Z,89.80
2018-03-18T01:05:56.013Z,90.00
2018-03-18T01:08:24.288Z,89.40
2018-03-18T01:10:52.769Z,89.30
2018-03-18T01:13:21.055Z,89.50
2018-03-18T01:15:49.346Z,89.20
2018-03-18T01:18:17.610Z,90.00
2018-03-18T01:20:45.876Z,89.70
2018-03-18T01:23:14.157Z,89.30
2018-03-18T01:25:42.441Z,89.50
2018-03-18T01:28:10.812Z,89.40
2018-03-18T01:30:40.582Z,90.00
2018-03-18T01:33:08.930Z,89.50
2018-03-18T01:35:37.964Z,89.10
2018-03-18T01:38:06.260Z,89.10
2018-03-18T01:40:34.574Z,89.50
2018-03-18T01:43:03.648Z,89.70
2018-03-18T01:45:31.921Z,89.60
2018-03-18T01:48:00.290Z,89.70
2018-03-18T01:50:28.543Z,89.30
2018-03-18T01:53:08.835Z,89.60
2018-03-18T01:55:37.100Z,89.60
2018-03-18T01:58:05.382Z,89.00
2018-03-18T02:00:33.656Z,88.60
2018-03-18T02:03:01.938Z,88.20
2018-03-18T02:05:30.208Z,90.00
2018-03-18T02:07:58.480Z,89.70
2018-03-18T02:10:26.749Z,89.30
2018-03-18T02:12:55.026Z,88.50
2018-03-18T02:15:23.310Z,88.70
2018-03-18T02:17:51.585Z,89.10
2018-03-18T02:20:19.869Z,89.70
2018-03-18T02:22:48.181Z,89.20
2018-03-18T02:25:17.281Z,90.10
2018-03-18T02:27:46.306Z,89.40
2018-03-18T02:30:14.672Z,89.40
2018-03-18T02:32:42.987Z,89.10
2018-03-18T02:35:11.243Z,89.40
2018-03-18T02:37:39.523Z,87.80
2018-03-18T02:40:07.786Z,89.30
2018-03-18T02:42:36.057Z,89.20
2018-03-18T02:45:04.404Z,88.30
2018-03-18T02:47:33.563Z,89.00
2018-03-18T02:50:01.832Z,89.00
2018-03-18T02:52:30.117Z,88.00
2018-03-18T02:54:58.367Z,88.20
2018-03-18T02:57:26.684Z,88.50
2018-03-18T02:59:54.947Z,88.30
2018-03-18T03:02:23.247Z,88.30
2018-03-18T03:04:51.505Z,88.20
2018-03-18T03:07:19.777Z,88.20
2018-03-18T03:09:48.052Z,88.80
2018-03-18T03:12:16.331Z,87.40
2018-03-18T03:14:44.642Z,86.70
2018-03-18T03:17:13.676Z,87.40
2018-03-18T03:19:41.944Z,87.30
2018-03-18T03:22:10.255Z,87.00
2018-03-18T03:24:38.517Z,87.90
2018-03-18T03:27:06.774Z,87.30
2018-03-18T03:29:35.048Z,87.20
2018-03-18T03:32:03.304Z,85.50
2018-03-18T03:34:32.351Z,87.50
2018-03-18T03:37:00.604Z,87.50
2018-03-18T03:39:28.867Z,87.00
2018-03-18T03:41:57.155Z,86.30
2018-03-18T03:44:25.426Z,87.30
2018-03-18T03:46:53.704Z,86.40
2018-03-18T03:49:21.947Z,86.30
2018-03-18T03:51:50.984Z,86.10
2018-03-18T03:54:19.291Z,85.90
2018-03-18T03:56:47.528Z,84.90
2018-03-18T03:59:15.791Z,85.50
2018-03-18T04:01:44.085Z,85.40
2018-03-18T04:04:12.341Z,85.20
2018-03-18T04:06:40.636Z,85.70
2018-03-18T04:09:08.898Z,86.10
2018-03-18T04:11:37.206Z,87.10
2018-03-18T04:14:05.496Z,85.80
2018-03-18T04:16:33.863Z,84.20
2018-03-18T04:19:02.159Z,84.80
2018-03-18T04:21:30.416Z,85.50
2018-03-18T04:23:58.683Z,85.80
2018-03-18T04:26:26.949Z,85.90
2018-03-18T04:28:55.215Z,84.70
2018-03-18T04:31:23.476Z,84.60
2018-03-18T04:33:51.797Z,84.90
2018-03-18T04:36:20.018Z,84.70
2018-03-18T04:38:49.069Z,84.90
2018-03-18T04:41:17.343Z,84.90
2018-03-18T04:43:45.602Z,85.50
2018-03-18T04:46:13.869Z,84.20
2018-03-18T04:48:42.140Z,84.40
2018-03-18T04:51:10.461Z,83.50
2018-03-18T04:53:38.729Z,84.10
2018-03-18T04:56:07.039Z,84.20
2018-03-18T04:58:35.297Z,83.70
2018-03-18T05:01:04.333Z,83.70
2018-03-18T05:03:34.170Z,83.70
2018-03-18T05:06:02.428Z,83.60
2018-03-18T05:08:30.741Z,83.40
2018-03-18T05:10:58.965Z,84.20
2018-03-18T05:13:27.239Z,84.70
2018-03-18T05:15:55.482Z,83.20
2018-03-18T05:18:23.752Z,84.60
2018-03-18T05:20:52.005Z,84.90
2018-03-18T05:23:20.258Z,84.80
2018-03-18T05:25:48.540Z,84.60
2018-03-18T05:28:16.812Z,83.40
2018-03-18T05:30:45.065Z,83.50
2018-03-18T05:33:13.330Z,82.50
2018-03-18T05:35:42.357Z,82.90
2018-03-18T05:38:10.621Z,82.90
2018-03-18T05:40:38.889Z,82.90
2018-03-18T05:43:07.135Z,82.90
2018-03-18T05:45:35.413Z,83.90
2018-03-18T05:48:03.676Z,83.30
2018-03-18T05:50:32.772Z,84.30
2018-03-18T05:53:01.100Z,82.50
2018-03-18T05:55:29.335Z,83.10
2018-03-18T05:57:58.409Z,83.30
2018-03-18T06:00:26.692Z,82.50
2018-03-18T06:02:54.977Z,81.40
2018-03-18T06:05:23.240Z,82.10
2018-03-18T06:07:51.495Z,82.50
2018-03-18T06:10:19.752Z,81.10
2018-03-18T06:12:48.020Z,80.30
2018-03-18T06:15:16.294Z,79.80
2018-03-18T06:17:44.572Z,78.90
2018-03-18T06:20:12.852Z,79.60
2018-03-18T06:22:41.101Z,78.80
2018-03-18T06:25:10.144Z,78.50
2018-03-18T06:27:38.426Z,78.40
2018-03-18T06:30:06.677Z,79.20
2018-03-18T06:32:34.951Z,79.30
2018-03-18T06:35:03.192Z,79.10
2018-03-18T06:37:32.259Z,78.60
2018-03-18T06:40:00.506Z,78.50
2018-03-18T06:42:28.810Z,79.90
2018-03-18T06:44:57.048Z,79.40
2018-03-18T06:47:25.312Z,78.00
2018-03-18T06:49:53.663Z,79.70
2018-03-18T06:52:21.922Z,79.80
2018-03-18T06:54:50.206Z,80.60
2018-03-18T06:57:18.484Z,78.30
2018-03-18T06:59:46.752Z,78.10
2018-03-18T07:02:15.025Z,78.00
2018-03-18T07:04:43.311Z,78.30
2018-03-18T07:07:11.585Z,80.00
2018-03-18T07:09:39.860Z,78.60
2018-03-18T07:12:08.148Z,78.80
2018-03-18T07:14:36.413Z,79.40
2018-03-18T07:17:04.687Z,78.70
2018-03-18T07:19:32.967Z,79.00
2018-03-18T07:22:01.247Z,79.30
2018-03-18T07:24:29.516Z,78.40
2018-03-18T07:26:57.885Z,78.30
2018-03-18T07:29:26.136Z,77.80
2018-03-18T07:31:54.415Z,77.50
2018-03-18T07:34:22.662Z,77.40
2018-03-18T07:36:50.929Z,77.50
2018-03-18T07:39:19.983Z,78.40
2018-03-18T07:41:48.239Z,78.40
2018-03-18T07:44:16.524Z,78.10
2018-03-18T07:46:44.812Z,77.60
2018-03-18T07:49:13.074Z,78.90
2018-03-18T07:51:41.346Z,78.50
2018-03-18T07:54:09.629Z,77.40
2018-03-18T07:56:37.932Z,77.60
2018-03-18T07:59:06.210Z,78.10
2018-03-18T08:01:35.298Z,77.20
2018-03-18T08:04:03.606Z,78.10
2018-03-18T08:06:32.608Z,77.40
2018-03-18T08:09:00.883Z,77.30
2018-03-18T08:11:29.154Z,76.80
2018-03-18T08:13:58.217Z,77.90
2018-03-18T08:16:26.469Z,77.90
2018-03-18T08:18:54.747Z,77.60
2018-03-18T08:21:23.067Z,77.80
2018-03-18T08:23:51.309Z,78.40
2018-03-18T08:26:19.699Z,78.40
2018-03-18T08:28:47.890Z,77.30
2018-03-18T08:31:16.207Z,77.00
2018-03-18T08:33:44.474Z,76.60
2018-03-18T08:36:12.750Z,76.60
2018-03-18T08:38:41.020Z,76.90
2018-03-18T08:41:10.043Z,77.20
2018-03-18T08:43:38.343Z,77.20
2018-03-18T08:46:06.746Z,77.10
2018-03-18T08:48:34.992Z,76.30
2018-03-18T08:51:03.272Z,75.30
2018-03-18T08:53:31.547Z,75.80
2018-03-18T08:55:59.843Z,76.60
2018-03-18T08:58:28.096Z,76.20
2018-03-18T09:00:57.192Z,76.10
2018-03-18T09:03:25.445Z,75.40
2018-03-18T09:05:53.719Z,75.40
2018-03-18T09:08:21.977Z,76.10
2018-03-18T09:10:50.253Z,75.80
2018-03-18T09:13:18.506Z,76.30
2018-03-18T09:15:46.787Z,74.80
2018-03-18T09:18:15.825Z,74.60
2018-03-18T09:20:44.096Z,74.50
2018-03-18T09:23:12.375Z,75.30
2018-03-18T09:25:40.631Z,76.40
2018-03-18T09:28:08.923Z,75.80
2018-03-18T09:30:37.164Z,75.50
2018-03-18T09:33:06.200Z,75.10
2018-03-18T09:35:34.509Z,75.10
2018-03-18T09:38:02.762Z,75.30
2018-03-18T09:40:31.158Z,75.50
2018-03-18T09:42:59.468Z,74.80
2018-03-18T09:45:28.802Z,75.20
2018-03-18T09:47:57.062Z,75.20
2018-03-18T09:50:25.356Z,74.30
2018-03-18T09:52:53.623Z,74.30
2018-03-18T09:55:21.909Z,73.40
2018-03-18T09:57:50.217Z,73.10
2018-03-18T10:00:18.586Z,73.00
2018-03-18T10:02:46.833Z,73.70
2018-03-18T10:05:15.109Z,74.30
2018-03-18T10:07:43.391Z,72.60
2018-03-18T10:10:11.653Z,72.80
2018-03-18T10:12:39.933Z,73.30
2018-03-18T10:15:08.209Z,74.10
2018-03-18T10:17:36.528Z,74.80
2018-03-18T10:20:04.802Z,72.50
2018-03-18T10:22:33.144Z,72.90
2018-03-18T10:25:01.452Z,72.80
2018-03-18T10:27:29.743Z,73.10
2018-03-18T10:29:58.008Z,72.70
2018-03-18T10:32:26.268Z,72.70
2018-03-18T10:34:54.567Z,73.30
2018-03-18T10:37:22.850Z,74.40
2018-03-18T10:39:51.108Z,73.60
2018-03-18T10:42:19.385Z,73.20
2018-03-18T10:44:47.659Z,73.00
2018-03-18T10:47:16.007Z,72.90
2018-03-18T10:49:44.261Z,72.50
2018-03-18T10:52:13.294Z,71.80
2018-03-18T10:54:41.558Z,71.80
2018-03-18T10:57:09.823Z,72.00
2018-03-18T10:59:38.104Z,71.10
2018-03-18T11:02:21.247Z,71.60
2018-03-18T11:04:49.517Z,73.00
2018-03-18T11:07:17.804Z,72.10
2018-03-18T11:09:46.066Z,73.10
2018-03-18T11:12:14.335Z,72.50
2018-03-18T11:14:42.640Z,70.80
2018-03-18T11:17:10.932Z,71.40
2018-03-18T11:19:39.177Z,72.10
2018-03-18T11:22:07.461Z,71.60
2018-03-18T11:24:35.737Z,71.10
2018-03-18T11:27:04.036Z,71.10
2018-03-18T11:29:32.325Z,70.90
2018-03-18T11:32:01.410Z,70.90
2018-03-18T11:34:29.676Z,70.20
2018-03-18T11:36:57.946Z,69.40
2018-03-18T11:39:26.211Z,69.80
2018-03-18T11:41:54.531Z,69.60
2018-03-18T11:44:22.801Z,70.10
2018-03-18T11:46:51.118Z,68.80
2018-03-18T11:49:19.384Z,70.50
2018-03-18T11:51:47.707Z,69.90
2018-03-18T11:54:15.969Z,70.00
2018-03-18T11:56:44.267Z,70.40
2018-03-18T11:59:12.592Z,70.50
2018-03-18T12:01:40.864Z,71.30
2018-03-18T12:04:09.212Z,71.70
2018-03-18T12:06:37.513Z,71.60
2018-03-18T12:09:05.798Z,71.50
2018-03-18T12:11:34.084Z,70.80
2018-03-18T12:14:02.425Z,72.00
2018-03-18T12:16:31.504Z,71.50
2018-03-18T12:18:59.783Z,71.40
2018-03-18T12:21:28.179Z,71.50
2018-03-18T12:23:56.452Z,71.70
2018-03-18T12:26:24.708Z,71.40
2018-03-18T12:28:52.972Z,71.70
2018-03-18T12:31:21.237Z,71.40
2018-03-18T12:33:49.572Z,71.80
2018-03-18T12:36:17.792Z,70.70
2018-03-18T12:38:46.192Z,71.20
2018-03-18T12:41:14.447Z,71.60
2018-03-18T12:43:42.714Z,71.70
2018-03-18T12:46:10.997Z,71.50
2018-03-18T12:48:39.255Z,72.60
2018-03-18T12:51:07.527Z,72.20
2018-03-18T12:53:35.792Z,72.70
2018-03-18T12:56:04.075Z,73.50
2018-03-18T12:58:32.361Z,73.50
2018-03-18T13:01:00.628Z,72.80
2018-03-18T13:03:28.897Z,71.40
2018-03-18T13:05:57.201Z,72.20
2018-03-18T13:08:25.443Z,72.90
2018-03-18T13:10:53.739Z,71.90
2018-03-18T13:13:22.000Z,72.30
2018-03-18T13:15:50.281Z,70.60
2018-03-18T13:18:18.564Z,71.10
2018-03-18T13:20:46.856Z,71.20
2018-03-18T13:23:15.157Z,70.30
2018-03-18T13:25:43.486Z,71.10
2018-03-18T13:28:11.745Z,70.00
2018-03-18T13:30:40.796Z,71.10
2018-03-18T13:33:09.048Z,71.10
2018-03-18T13:35:37.327Z,71.20
2018-03-18T13:38:05.604Z,71.60
2018-03-18T13:40:33.868Z,71.50
2018-03-18T13:43:02.141Z,72.00
2018-03-18T13:45:30.407Z,71.50
2018-03-18T13:47:58.680Z,71.80
2018-03-18T13:50:26.991Z,71.70
2018-03-18T13:52:55.247Z,72.00
2018-03-18T13:55:23.528Z,71.40
2018-03-18T13:57:51.788Z,71.20
2018-03-18T14:00:20.850Z,71.50
2018-03-18T14:02:49.117Z,71.70
2018-03-18T14:05:17.416Z,70.90
2018-03-18T14:07:46.437Z,72.40
2018-03-18T14:10:14.726Z,71.60
2018-03-18T14:12:42.987Z,70.70
2018-03-18T14:15:11.260Z,70.70
2018-03-18T14:17:39.533Z,70.90
2018-03-18T14:20:07.827Z,70.50
2018-03-18T14:22:36.863Z,71.20
2018-03-18T14:25:05.135Z,71.20
2018-03-18T14:27:33.445Z,71.20
2018-03-18T14:30:01.800Z,72.20
2018-03-18T14:32:30.138Z,71.20
2018-03-18T14:34:59.221Z,71.50
2018-03-18T14:37:27.523Z,71.00
2018-03-18T14:39:55.787Z,71.00
2018-03-18T14:42:24.099Z,71.00
2018-03-18T14:44:52.355Z,71.60
2018-03-18T14:47:20.642Z,71.20
2018-03-18T14:49:48.905Z,71.70
2018-03-18T14:52:17.189Z,71.90
2018-03-18T14:54:45.448Z,71.90
2018-03-18T14:57:13.727Z,72.20
2018-03-18T14:59:41.998Z,71.70
2018-03-18T15:02:10.255Z,72.20
2018-03-18T15:04:38.878Z,72.10
2018-03-18T15:07:07.152Z,72.00
2018-03-18T15:09:35.424Z,71.90
2018-03-18T15:12:03.686Z,71.70
2018-03-18T15:14:31.966Z,72.40
2018-03-18T15:17:00.254Z,71.20
2018-03-18T15:19:28.585Z,71.90
2018-03-18T15:21:57.683Z,71.70
2018-03-18T15:24:26.705Z,72.50
2018-03-18T15:26:54.957Z,72.40
2018-03-18T15:29:23.232Z,72.10
2018-03-18T15:31:51.506Z,71.60
2018-03-18T15:34:19.791Z,71.80
2018-03-18T15:36:48.033Z,71.90
2018-03-18T15:39:17.134Z,72.20
2018-03-18T15:41:46.197Z,72.00
2018-03-18T15:44:14.466Z,72.00
2018-03-18T15:46:42.733Z,72.50
2018-03-18T15:49:11.032Z,72.20
2018-03-18T15:51:39.318Z,72.30
2018-03-18T15:54:07.643Z,72.30
2018-03-18T15:56:35.881Z,71.90
2018-03-18T15:59:05.002Z,72.70
2018-03-18T16:01:33.289Z,72.70
2018-03-18T16:04:01.529Z,72.40
2018-03-18T16:06:30.574Z,72.80
2018-03-18T16:08:58.838Z,72.80
2018-03-18T16:11:27.093Z,73.10
2018-03-18T16:13:55.408Z,72.70
2018-03-18T16:16:23.672Z,72.90
2018-03-18T16:18:51.937Z,73.00
2018-03-18T16:21:20.207Z,72.70
2018-03-18T16:23:48.515Z,72.70
2018-03-18T16:26:16.824Z,72.80
2018-03-18T16:28:45.119Z,72.80
2018-03-18T16:31:17.793Z,73.80
2018-03-18T16:33:46.044Z,73.70
2018-03-18T16:36:14.323Z,74.00
2018-03-18T16:38:42.610Z,73.90
2018-03-18T16:41:10.861Z,73.50
2018-03-18T16:43:39.134Z,73.10
2018-03-18T16:46:07.420Z,73.90
2018-03-18T16:48:35.680Z,73.60
2018-03-18T16:51:03.975Z,73.50
2018-03-18T16:53:32.240Z,73.40
2018-03-18T16:56:00.541Z,73.70
2018-03-18T16:58:28.968Z,74.30
2018-03-18T17:00:57.237Z,73.80
2018-03-18T17:03:25.623Z,73.80
2018-03-18T17:05:53.959Z,73.60
2018-03-18T17:08:22.396Z,73.30
2018-03-18T17:10:50.697Z,73.70
2018-03-18T17:13:19.002Z,74.20
2018-03-18T17:15:48.069Z,75.50
2018-03-18T17:18:16.423Z,74.60
2018-03-18T17:20:44.726Z,74.00
2018-03-18T17:23:12.998Z,74.00
2018-03-18T17:25:41.258Z,74.30
2018-03-18T17:28:09.520Z,74.50
2018-03-18T17:30:37.798Z,74.20
2018-03-18T17:33:06.097Z,73.50
2018-03-18T17:35:34.491Z,73.90
2018-03-18T17:38:02.757Z,73.70
2018-03-18T17:40:31.033Z,73.50
2018-03-18T17:43:03.279Z,73.50
2018-03-18T17:45:43.577Z,74.90
2018-03-18T17:48:23.717Z,73.30
2018-03-18T17:51:04.649Z,74.30
2018-03-18T17:53:44.706Z,74.20
2018-03-18T17:56:27.154Z,74.10
2018-03-18T17:58:55.616Z,74.10
2018-03-18T18:01:24.087Z,74.70
2018-03-18T18:03:53.220Z,74.60
2018-03-18T18:06:21.505Z,73.70
2018-03-18T18:08:49.826Z,74.20
2018-03-18T18:11:18.140Z,74.10
2018-03-18T18:13:46.620Z,74.40
2018-03-18T18:16:14.917Z,75.30
2018-03-18T18:18:43.246Z,75.10
2018-03-18T18:21:11.515Z,74.20
2018-03-18T18:23:39.863Z,73.10
2018-03-18T18:26:08.891Z,74.80
2018-03-18T18:28:37.180Z,74.80
2018-03-18T18:31:05.447Z,74.80
2018-03-18T18:33:33.714Z,74.00
2018-03-18T18:36:01.997Z,74.10
2018-03-18T18:38:30.285Z,74.40
2018-03-18T18:40:58.540Z,74.10
2018-03-18T18:43:26.847Z,74.00
2018-03-18T18:45:55.079Z,73.60
2018-03-18T18:48:23.372Z,74.30
2018-03-18T18:50:51.694Z,73.60
2018-03-18T18:53:19.988Z,73.20
2018-03-18T18:55:48.286Z,74.00
2018-03-18T18:58:16.653Z,72.90
2018-03-18T19:00:44.955Z,71.60
2018-03-18T19:03:13.379Z,72.20
2018-03-18T19:05:41.649Z,71.80
2018-03-18T19:08:09.929Z,71.30
2018-03-18T19:10:38.278Z,71.60
2018-03-18T19:13:06.561Z,71.30
2018-03-18T19:15:34.844Z,71.10
2018-03-18T19:18:03.100Z,70.10
2018-03-18T19:20:31.424Z,72.00
2018-03-18T19:22:59.719Z,72.20
2018-03-18T19:25:28.741Z,72.20
2018-03-18T19:27:57.048Z,72.20
2018-03-18T19:30:25.345Z,72.00
2018-03-18T19:32:53.625Z,71.80
2018-03-18T19:35:21.905Z,71.00
2018-03-18T19:37:50.179Z,71.60
2018-03-18T19:40:18.444Z,72.20
2018-03-18T19:42:47.486Z,71.90
2018-03-18T19:45:15.757Z,72.70
2018-03-18T19:47:44.836Z,71.60
2018-03-18T19:50:13.902Z,73.10
2018-03-18T19:52:42.231Z,73.00
2018-03-18T19:55:10.616Z,73.30
2018-03-18T19:57:38.881Z,72.20
2018-03-18T20:00:07.145Z,72.10
2018-03-18T20:02:36.204Z,73.00
2018-03-18T20:05:04.502Z,72.90
2018-03-18T20:07:36.835Z,72.40
2018-03-18T20:10:05.119Z,71.80
2018-03-18T20:12:33.388Z,72.40
2018-03-18T20:15:01.793Z,73.40
2018-03-18T20:17:30.150Z,73.50
2018-03-18T20:19:58.562Z,72.80
2018-03-18T20:22:26.831Z,73.30
2018-03-18T20:24:55.159Z,73.10
2018-03-18T20:27:23.582Z,72.50
2018-03-18T20:29:51.862Z,72.50
2018-03-18T20:32:20.261Z,72.80
2018-03-18T20:34:48.573Z,74.30
2018-03-18T20:37:16.889Z,74.10
2018-03-18T20:39:45.966Z,73.80
2018-03-18T20:42:14.268Z,73.80
2018-03-18T20:44:42.542Z,72.90
2018-03-18T20:47:10.825Z,72.70
2018-03-18T20:49:39.152Z,73.90
2018-03-18T20:52:07.478Z,73.00
2018-03-18T20:54:35.738Z,72.50
2018-03-18T20:57:04.012Z,72.50
2018-03-18T20:59:33.242Z,72.60
2018-03-18T21:02:02.322Z,73.00
2018-03-18T21:04:30.600Z,73.00
2018-03-18T21:06:58.884Z,73.00
2018-03-18T21:09:28.092Z,72.80
2018-03-18T21:11:57.221Z,73.60
2018-03-18T21:14:25.480Z,73.50
2018-03-18T21:16:53.776Z,73.20
2018-03-18T21:19:22.117Z,72.70
2018-03-18T21:21:51.408Z,73.00
2018-03-18T21:24:19.770Z,73.40
2018-03-18T21:26:48.054Z,73.80
2018-03-18T21:29:16.364Z,72.90
2018-03-18T21:31:44.651Z,74.40
2018-03-18T21:34:13.061Z,74.60
2018-03-18T21:36:41.342Z,74.20
2018-03-18T21:39:09.652Z,75.30
2018-03-18T21:41:37.928Z,76.00
2018-03-18T21:44:06.236Z,74.40
2018-03-18T21:46:34.491Z,74.40
2018-03-18T21:49:02.755Z,74.90
2018-03-18T21:51:31.929Z,74.40
2018-03-18T21:54:00.362Z,74.40
2018-03-18T21:56:28.669Z,74.90
2018-03-18T21:58:57.762Z,74.20
2018-03-18T22:01:28.137Z,74.30
2018-03-18T22:03:56.420Z,74.50
2018-03-18T22:06:27.240Z,74.50
2018-03-18T22:08:56.662Z,74.50
2018-03-18T22:11:24.959Z,74.90
2018-03-18T22:13:54.318Z,74.70
2018-03-18T22:16:23.571Z,75.50
2018-03-18T22:18:53.314Z,75.00
2018-03-18T22:21:21.584Z,74.60
2018-03-18T22:23:51.817Z,75.00
2018-03-18T22:26:20.064Z,75.50
2018-03-18T22:28:48.374Z,74.80
2018-03-18T22:31:16.625Z,75.20
2018-03-18T22:33:44.902Z,75.30
2018-03-18T22:36:13.191Z,75.90
2018-03-18T22:38:42.495Z,75.20
2018-03-18T22:41:10.832Z,76.20
2018-03-18T22:43:39.930Z,76.00
2018-03-18T22:46:08.189Z,76.10
2018-03-18T22:48:36.508Z,75.50
2018-03-18T22:51:04.834Z,75.60
2018-03-18T22:53:33.968Z,75.60
2018-03-18T22:56:02.282Z,74.80
2018-03-18T22:58:30.563Z,75.20
2018-03-18T23:00:58.893Z,75.40
2018-03-18T23:03:27.280Z,75.30
2018-03-18T23:05:56.692Z,75.40
2018-03-18T23:08:25.060Z,75.50
2018-03-18T23:10:53.758Z,75.00
2018-03-18T23:13:22.066Z,75.10
2018-03-18T23:15:50.350Z,75.60
2018-03-18T23:18:19.413Z,75.40
2018-03-18T23:20:47.659Z,75.40
2018-03-18T23:23:15.973Z,75.10
2018-03-18T23:25:44.235Z,75.40
2018-03-18T23:28:12.556Z,75.40
2018-03-18T23:30:43.436Z,75.20
2018-03-18T23:33:13.590Z,75.30
2018-03-18T23:35:41.860Z,75.60
2018-03-18T23:38:10.134Z,75.20
2018-03-18T23:40:38.401Z,75.40
2018-03-18T23:43:08.522Z,75.20
2018-03-18T23:45:36.799Z,75.10
2018-03-18T23:48:07.017Z,75.80
2018-03-18T23:50:53.880Z,75.50
2018-03-18T23:53:22.922Z,75.30
2018-03-18T23:55:56.401Z,75.20
2018-03-18T23:58:25.590Z,75.60
